sensor_id;sensor_type;location;lat;lon;timestamp;pressure;altitude;pressure_sealevel;temperature;humidity
70909;BME280;58554;52.006;5.926;2023-04-08T00:00:56;101426.97;;;4.04;85.20
70909;BME280;58554;52.006;5.926;2023-04-08T00:03:23;101418.28;;;4.02;85.09
70909;BME280;58554;52.006;5.926;2023-04-08T00:05:50;101424.44;;;3.99;85.02
70909;BME280;58554;52.006;5.926;2023-04-08T00:08:16;101428.03;;;3.94;84.77
70909;BME280;58554;52.006;5.926;2023-04-08T00:10:43;101427.28;;;3.89;85.04
70909;BME280;58554;52.006;5.926;2023-04-08T00:13:09;101426.50;;;3.83;84.72
70909;BME280;58554;52.006;5.926;2023-04-08T00:15:36;101437.03;;;3.79;84.68
70909;BME280;58554;52.006;5.926;2023-04-08T00:18:06;101428.41;;;3.74;84.97
70909;BME280;58554;52.006;5.926;2023-04-08T00:20:33;101425.00;;;3.70;85.06
70909;BME280;58554;52.006;5.926;2023-04-08T00:23:00;101435.47;;;3.69;85.14
70909;BME280;58554;52.006;5.926;2023-04-08T00:25:26;101431.19;;;3.64;85.33
70909;BME280;58554;52.006;5.926;2023-04-08T00:27:53;101433.81;;;3.64;85.06
70909;BME280;58554;52.006;5.926;2023-04-08T00:30:19;101436.50;;;3.61;85.32
70909;BME280;58554;52.006;5.926;2023-04-08T00:32:46;101439.13;;;3.60;85.08
70909;BME280;58554;52.006;5.926;2023-04-08T00:35:15;101441.81;;;3.55;85.00
70909;BME280;58554;52.006;5.926;2023-04-08T00:37:42;101431.47;;;3.49;84.76
70909;BME280;58554;52.006;5.926;2023-04-08T00:40:09;101437.66;;;3.43;85.12
70909;BME280;58554;52.006;5.926;2023-04-08T00:42:36;101438.59;;;3.39;84.87
70909;BME280;58554;52.006;5.926;2023-04-08T00:45:03;101442.16;;;3.35;84.83
70909;BME280;58554;52.006;5.926;2023-04-08T00:47:30;101449.19;;;3.32;85.00
70909;BME280;58554;52.006;5.926;2023-04-08T00:49:57;101447.47;;;3.29;85.17
70909;BME280;58554;52.006;5.926;2023-04-08T00:52:26;101448.41;;;3.26;85.16
70909;BME280;58554;52.006;5.926;2023-04-08T00:54:54;101455.38;;;3.28;84.96
70909;BME280;58554;52.006;5.926;2023-04-08T00:57:21;101453.69;;;3.23;84.83
70909;BME280;58554;52.006;5.926;2023-04-08T00:59:47;101458.06;;;3.23;84.85
70909;BME280;58554;52.006;5.926;2023-04-08T01:02:19;101452.88;;;3.20;84.96
70909;BME280;58554;52.006;5.926;2023-04-08T01:04:59;101464.13;;;3.23;84.83
70909;BME280;58554;52.006;5.926;2023-04-08T01:07:36;101454.53;;;3.24;84.75
70909;BME280;58554;52.006;5.926;2023-04-08T01:10:12;101451.91;;;3.25;84.64
70909;BME280;58554;52.006;5.926;2023-04-08T01:12:45;101455.38;;;3.26;84.78
70909;BME280;58554;52.006;5.926;2023-04-08T01:15:15;101453.66;;;3.25;84.72
70909;BME280;58554;52.006;5.926;2023-04-08T01:17:43;101452.75;;;3.26;84.88
70909;BME280;58554;52.006;5.926;2023-04-08T01:20:13;101450.16;;;3.24;84.88
70909;BME280;58554;52.006;5.926;2023-04-08T01:22:55;101457.16;;;3.24;84.80
70909;BME280;58554;52.006;5.926;2023-04-08T01:25:31;101452.84;;;3.21;84.78
70909;BME280;58554;52.006;5.926;2023-04-08T01:28:04;101454.63;;;3.18;84.56
70909;BME280;58554;52.006;5.926;2023-04-08T01:30:33;101459.09;;;3.13;84.48
70909;BME280;58554;52.006;5.926;2023-04-08T01:33:04;101463.50;;;3.08;84.81
70909;BME280;58554;52.006;5.926;2023-04-08T01:35:32;101460.97;;;3.01;84.46
70909;BME280;58554;52.006;5.926;2023-04-08T01:38:00;101454.97;;;2.96;84.66
70909;BME280;58554;52.006;5.926;2023-04-08T01:40:29;101454.16;;;2.91;84.60
70909;BME280;58554;52.006;5.926;2023-04-08T01:43:00;101464.66;;;2.88;84.65
70909;BME280;58554;52.006;5.926;2023-04-08T01:45:29;101465.59;;;2.82;84.48
70909;BME280;58554;52.006;5.926;2023-04-08T01:47:57;101464.78;;;2.79;84.64
70909;BME280;58554;52.006;5.926;2023-04-08T01:50:25;101464.00;;;2.74;84.62
70909;BME280;58554;52.006;5.926;2023-04-08T01:52:53;101470.09;;;2.73;84.57
70909;BME280;58554;52.006;5.926;2023-04-08T01:55:25;101471.84;;;2.72;84.82
70909;BME280;58554;52.006;5.926;2023-04-08T01:57:55;101470.97;;;2.72;84.48
70909;BME280;58554;52.006;5.926;2023-04-08T02:00:31;101473.59;;;2.72;84.61
70909;BME280;58554;52.006;5.926;2023-04-08T02:03:01;101473.63;;;2.69;84.51
70909;BME280;58554;52.006;5.926;2023-04-08T02:05:31;101467.59;;;2.65;84.30
70909;BME280;58554;52.006;5.926;2023-04-08T02:07:58;101465.00;;;2.63;84.44
70909;BME280;58554;52.006;5.926;2023-04-08T02:10:25;101475.50;;;2.60;84.21
70909;BME280;58554;52.006;5.926;2023-04-08T02:12:52;101468.59;;;2.56;84.43
70909;BME280;58554;52.006;5.926;2023-04-08T02:15:22;101468.63;;;2.52;84.43
70909;BME280;58554;52.006;5.926;2023-04-08T02:17:54;101467.75;;;2.51;84.34
70909;BME280;58554;52.006;5.926;2023-04-08T02:20:30;101467.78;;;2.50;84.43
70909;BME280;58554;52.006;5.926;2023-04-08T02:23:13;101470.44;;;2.48;84.57
70909;BME280;58554;52.006;5.926;2023-04-08T02:25:46;101473.03;;;2.48;84.48
70909;BME280;58554;52.006;5.926;2023-04-08T02:28:14;101468.69;;;2.45;84.79
70909;BME280;58554;52.006;5.926;2023-04-08T02:30:48;101459.16;;;2.44;84.70
70909;BME280;58554;52.006;5.926;2023-04-08T02:33:17;101467.84;;;2.43;84.75
70909;BME280;58554;52.006;5.926;2023-04-08T02:35:47;101462.66;;;2.42;84.60
70909;BME280;58554;52.006;5.926;2023-04-08T02:38:16;101462.69;;;2.40;84.75
70909;BME280;58554;52.006;5.926;2023-04-08T02:40:43;101461.84;;;2.35;84.45
70909;BME280;58554;52.006;5.926;2023-04-08T02:43:09;101457.59;;;2.30;84.50
70909;BME280;58554;52.006;5.926;2023-04-08T02:45:38;101463.72;;;2.27;84.52
70909;BME280;58554;52.006;5.926;2023-04-08T02:48:09;101470.72;;;2.25;84.87
70909;BME280;58554;52.006;5.926;2023-04-08T02:50:36;101464.66;;;2.21;84.86
70909;BME280;58554;52.006;5.926;2023-04-08T02:53:03;101473.38;;;2.17;84.62
70909;BME280;58554;52.006;5.926;2023-04-08T02:55:30;101476.91;;;2.15;84.83
70909;BME280;58554;52.006;5.926;2023-04-08T02:57:56;101471.72;;;2.10;84.90
70909;BME280;58554;52.006;5.926;2023-04-08T03:00:23;101480.44;;;2.06;85.12
70909;BME280;58554;52.006;5.926;2023-04-08T03:02:49;101474.44;;;2.02;84.94
70909;BME280;58554;52.006;5.926;2023-04-08T03:05:19;101481.34;;;2.02;85.16
70909;BME280;58554;52.006;5.926;2023-04-08T03:07:45;101482.25;;;1.99;85.33
70909;BME280;58554;52.006;5.926;2023-04-08T03:10:12;101477.94;;;1.97;85.35
70909;BME280;58554;52.006;5.926;2023-04-08T03:12:39;101478.84;;;1.94;85.65
70909;BME280;58554;52.006;5.926;2023-04-08T03:15:06;101486.69;;;1.94;85.40
70909;BME280;58554;52.006;5.926;2023-04-08T03:17:33;101492.75;;;1.95;85.63
70909;BME280;58554;52.006;5.926;2023-04-08T03:20:00;101486.69;;;1.91;85.87
70909;BME280;58554;52.006;5.926;2023-04-08T03:22:29;101487.59;;;1.92;85.59
70909;BME280;58554;52.006;5.926;2023-04-08T03:24:56;101492.78;;;1.92;85.73
70909;BME280;58554;52.006;5.926;2023-04-08T03:27:22;101496.28;;;1.91;85.84
70909;BME280;58554;52.006;5.926;2023-04-08T03:29:49;101494.56;;;1.90;85.88
70909;BME280;58554;52.006;5.926;2023-04-08T03:32:16;101498.88;;;1.89;86.06
70909;BME280;58554;52.006;5.926;2023-04-08T03:34:42;101499.78;;;1.88;85.98
70909;BME280;58554;52.006;5.926;2023-04-08T03:37:09;101500.63;;;1.87;86.04
70909;BME280;58554;52.006;5.926;2023-04-08T03:39:38;101494.56;;;1.85;85.81
70909;BME280;58554;52.006;5.926;2023-04-08T03:42:05;101494.63;;;1.83;86.19
70909;BME280;58554;52.006;5.926;2023-04-08T03:44:31;101505.06;;;1.82;86.12
70909;BME280;58554;52.006;5.926;2023-04-08T03:46:58;101508.50;;;1.81;86.02
70909;BME280;58554;52.006;5.926;2023-04-08T03:49:24;101503.34;;;1.79;86.06
70909;BME280;58554;52.006;5.926;2023-04-08T03:51:51;101510.28;;;1.79;86.15
70909;BME280;58554;52.006;5.926;2023-04-08T03:54:17;101505.97;;;1.76;86.35
70909;BME280;58554;52.006;5.926;2023-04-08T03:56:48;101506.84;;;1.75;86.35
70909;BME280;58554;52.006;5.926;2023-04-08T03:59:15;101509.47;;;1.74;86.13
70909;BME280;58554;52.006;5.926;2023-04-08T04:01:41;101506.84;;;1.74;86.49
70909;BME280;58554;52.006;5.926;2023-04-08T04:04:08;101514.69;;;1.74;86.31
70909;BME280;58554;52.006;5.926;2023-04-08T04:06:34;101514.69;;;1.74;86.42
70909;BME280;58554;52.006;5.926;2023-04-08T04:09:01;101515.53;;;1.73;86.52
70909;BME280;58554;52.006;5.926;2023-04-08T04:11:27;101511.22;;;1.72;86.60
70909;BME280;58554;52.006;5.926;2023-04-08T04:13:57;101516.44;;;1.69;86.27
70909;BME280;58554;52.006;5.926;2023-04-08T04:16:23;101531.22;;;1.70;86.53
70909;BME280;58554;52.006;5.926;2023-04-08T04:18:51;101526.88;;;1.69;86.19
70909;BME280;58554;52.006;5.926;2023-04-08T04:21:17;101520.81;;;1.67;86.57
70909;BME280;58554;52.006;5.926;2023-04-08T04:23:44;101535.59;;;1.66;86.52
70909;BME280;58554;52.006;5.926;2023-04-08T04:26:11;101529.53;;;1.64;86.45
70909;BME280;58554;52.006;5.926;2023-04-08T04:28:38;101538.19;;;1.64;86.54
70909;BME280;58554;52.006;5.926;2023-04-08T04:31:07;101533.88;;;1.63;86.76
70909;BME280;58554;52.006;5.926;2023-04-08T04:33:33;101535.59;;;1.64;86.82
70909;BME280;58554;52.006;5.926;2023-04-08T04:36:00;101534.75;;;1.64;86.52
70909;BME280;58554;52.006;5.926;2023-04-08T04:38:26;101540.84;;;1.61;86.76
70909;BME280;58554;52.006;5.926;2023-04-08T04:40:53;101546.91;;;1.62;86.80
70909;BME280;58554;52.006;5.926;2023-04-08T04:43:19;101553.00;;;1.64;86.81
70909;BME280;58554;52.006;5.926;2023-04-08T04:45:46;101553.03;;;1.61;86.70
70909;BME280;58554;52.006;5.926;2023-04-08T04:48:15;101560.00;;;1.60;86.41
70909;BME280;58554;52.006;5.926;2023-04-08T04:50:42;101547.81;;;1.61;86.50
70909;BME280;58554;52.006;5.926;2023-04-08T04:53:08;101561.69;;;1.63;86.62
70909;BME280;58554;52.006;5.926;2023-04-08T04:55:34;101559.94;;;1.62;86.74
70909;BME280;58554;52.006;5.926;2023-04-08T04:58:01;101566.06;;;1.62;86.57
70909;BME280;58554;52.006;5.926;2023-04-08T05:00:27;101563.44;;;1.59;86.18
70909;BME280;58554;52.006;5.926;2023-04-08T05:02:54;101559.13;;;1.57;86.13
70909;BME280;58554;52.006;5.926;2023-04-08T05:05:23;101556.53;;;1.55;86.44
70909;BME280;58554;52.006;5.926;2023-04-08T05:07:50;101557.44;;;1.53;86.34
70909;BME280;58554;52.006;5.926;2023-04-08T05:10:16;101558.31;;;1.50;86.25
70909;BME280;58554;52.006;5.926;2023-04-08T05:12:43;101562.66;;;1.50;86.40
70909;BME280;58554;52.006;5.926;2023-04-08T05:15:10;101573.06;;;1.50;86.67
70909;BME280;58554;52.006;5.926;2023-04-08T05:17:36;101567.00;;;1.49;86.60
70909;BME280;58554;52.006;5.926;2023-04-08T05:20:04;101573.06;;;1.51;86.38
70909;BME280;58554;52.006;5.926;2023-04-08T05:22:34;101585.25;;;1.52;86.58
70909;BME280;58554;52.006;5.926;2023-04-08T05:25:01;101576.53;;;1.56;86.60
70909;BME280;58554;52.006;5.926;2023-04-08T05:27:27;101578.25;;;1.59;86.58
70909;BME280;58554;52.006;5.926;2023-04-08T05:29:56;101577.34;;;1.63;86.59
70909;BME280;58554;52.006;5.926;2023-04-08T05:32:23;101591.19;;;1.68;86.59
70909;BME280;58554;52.006;5.926;2023-04-08T05:34:49;101584.22;;;1.72;86.28
70909;BME280;58554;52.006;5.926;2023-04-08T05:37:16;101592.91;;;1.74;86.52
70909;BME280;58554;52.006;5.926;2023-04-08T05:39:45;101591.16;;;1.76;86.38
70909;BME280;58554;52.006;5.926;2023-04-08T05:42:11;101598.06;;;1.80;86.56
70909;BME280;58554;52.006;5.926;2023-04-08T05:44:38;101591.09;;;1.82;86.52
70909;BME280;58554;52.006;5.926;2023-04-08T05:47:04;101591.91;;;1.87;86.30
70909;BME280;58554;52.006;5.926;2023-04-08T05:49:32;101600.59;;;1.92;86.51
70909;BME280;58554;52.006;5.926;2023-04-08T05:51:59;101602.25;;;1.98;86.31
70909;BME280;58554;52.006;5.926;2023-04-08T05:54:25;101599.63;;;2.02;86.43
70909;BME280;58554;52.006;5.926;2023-04-08T05:56:54;101603.94;;;2.07;86.18
70909;BME280;58554;52.006;5.926;2023-04-08T05:59:21;101604.75;;;2.10;86.16
70909;BME280;58554;52.006;5.926;2023-04-08T06:01:48;101603.00;;;2.15;86.13
70909;BME280;58554;52.006;5.926;2023-04-08T06:04:14;101602.94;;;2.21;86.12
70909;BME280;58554;52.006;5.926;2023-04-08T06:06:41;101612.47;;;2.27;86.20
70909;BME280;58554;52.006;5.926;2023-04-08T06:09:07;101614.97;;;2.33;86.27
70909;BME280;58554;52.006;5.926;2023-04-08T06:11:34;101615.78;;;2.43;85.99
70909;BME280;58554;52.006;5.926;2023-04-08T06:14:03;101623.53;;;2.51;85.97
70909;BME280;58554;52.006;5.926;2023-04-08T06:16:30;101624.28;;;2.62;85.93
70909;BME280;58554;52.006;5.926;2023-04-08T06:18:56;101623.34;;;2.69;85.77
70909;BME280;58554;52.006;5.926;2023-04-08T06:21:23;101621.53;;;2.76;85.72
70909;BME280;58554;52.006;5.926;2023-04-08T06:23:50;101622.31;;;2.82;85.56
70909;BME280;58554;52.006;5.926;2023-04-08T06:26:16;101623.09;;;2.91;85.79
70909;BME280;58554;52.006;5.926;2023-04-08T06:28:43;101630.00;;;2.96;85.42
70909;BME280;58554;52.006;5.926;2023-04-08T06:31:12;101632.50;;;3.04;85.29
70909;BME280;58554;52.006;5.926;2023-04-08T06:33:39;101634.19;;;3.11;85.04
70909;BME280;58554;52.006;5.926;2023-04-08T06:36:07;101630.56;;;3.20;85.09
70909;BME280;58554;52.006;5.926;2023-04-08T06:38:34;101633.06;;;3.29;85.16
70909;BME280;58554;52.006;5.926;2023-04-08T06:41:01;101639.94;;;3.38;84.86
70909;BME280;58554;52.006;5.926;2023-04-08T06:43:28;101640.63;;;3.49;84.74
70909;BME280;58554;52.006;5.926;2023-04-08T06:45:55;101641.31;;;3.62;84.76
70909;BME280;58554;52.006;5.926;2023-04-08T06:48:25;101649.84;;;3.75;84.53
70909;BME280;58554;52.006;5.926;2023-04-08T06:50:51;101647.09;;;3.85;84.48
70909;BME280;58554;52.006;5.926;2023-04-08T06:53:18;101646.94;;;3.96;84.16
70909;BME280;58554;52.006;5.926;2023-04-08T06:55:44;101646.78;;;4.04;84.01
70909;BME280;58554;52.006;5.926;2023-04-08T06:58:11;101642.28;;;4.12;83.89
70909;BME280;58554;52.006;5.926;2023-04-08T07:00:37;101643.03;;;4.22;83.82
70909;BME280;58554;52.006;5.926;2023-04-08T07:03:04;101650.69;;;4.31;83.44
70909;BME280;58554;52.006;5.926;2023-04-08T07:05:34;101660.13;;;4.41;83.44
70909;BME280;58554;52.006;5.926;2023-04-08T07:08:01;101669.59;;;4.50;83.32
70909;BME280;58554;52.006;5.926;2023-04-08T07:10:28;101670.31;;;4.58;83.20
70909;BME280;58554;52.006;5.926;2023-04-08T07:12:54;101668.41;;;4.68;83.25
70909;BME280;58554;52.006;5.926;2023-04-08T07:15:21;101675.19;;;4.78;83.13
70909;BME280;58554;52.006;5.926;2023-04-08T07:17:47;101685.53;;;4.86;82.93
70909;BME280;58554;52.006;5.926;2023-04-08T07:20:14;101678.38;;;4.96;82.70
70909;BME280;58554;52.006;5.926;2023-04-08T07:22:43;101678.22;;;5.05;82.49
70909;BME280;58554;52.006;5.926;2023-04-08T07:25:10;101672.75;;;5.16;82.52
70909;BME280;58554;52.006;5.926;2023-04-08T07:27:36;101677.81;;;5.25;82.37
70909;BME280;58554;52.006;5.926;2023-04-08T07:30:04;101680.22;;;5.36;82.35
70909;BME280;58554;52.006;5.926;2023-04-08T07:32:32;101687.84;;;5.48;82.22
70909;BME280;58554;52.006;5.926;2023-04-08T07:34:58;101695.41;;;5.60;81.87
70909;BME280;58554;52.006;5.926;2023-04-08T07:37:25;101699.56;;;5.71;81.86
70909;BME280;58554;52.006;5.926;2023-04-08T07:39:55;101688.03;;;5.79;81.81
70909;BME280;58554;52.006;5.926;2023-04-08T07:42:21;101687.78;;;5.90;81.61
70909;BME280;58554;52.006;5.926;2023-04-08T07:44:48;101696.19;;;6.04;81.53
70909;BME280;58554;52.006;5.926;2023-04-08T07:47:14;101691.44;;;6.20;81.34
70909;BME280;58554;52.006;5.926;2023-04-08T07:49:41;101688.44;;;6.36;81.04
70909;BME280;58554;52.006;5.926;2023-04-08T07:52:07;101691.69;;;6.45;80.79
70909;BME280;58554;52.006;5.926;2023-04-08T07:54:34;101694.81;;;6.60;80.58
70909;BME280;58554;52.006;5.926;2023-04-08T07:57:03;101702.34;;;6.74;80.24
70909;BME280;58554;52.006;5.926;2023-04-08T07:59:31;101700.25;;;6.86;79.95
70909;BME280;58554;52.006;5.926;2023-04-08T08:01:57;101691.94;;;7.02;79.57
70909;BME280;58554;52.006;5.926;2023-04-08T08:04:24;101697.75;;;7.15;79.38
70909;BME280;58554;52.006;5.926;2023-04-08T08:06:50;101694.81;;;7.25;78.98
70909;BME280;58554;52.006;5.926;2023-04-08T08:09:17;101691.19;;;7.29;78.70
70909;BME280;58554;52.006;5.926;2023-04-08T08:11:43;101699.78;;;7.35;78.43
70909;BME280;58554;52.006;5.926;2023-04-08T08:14:13;101697.94;;;7.38;78.86
70909;BME280;58554;52.006;5.926;2023-04-08T08:16:40;101701.28;;;7.45;78.28
70909;BME280;58554;52.006;5.926;2023-04-08T08:19:06;101690.44;;;7.56;78.47
70909;BME280;58554;52.006;5.926;2023-04-08T08:21:35;101701.72;;;7.61;77.97
70909;BME280;58554;52.006;5.926;2023-04-08T08:24:02;101703.38;;;7.63;77.88
70909;BME280;58554;52.006;5.926;2023-04-08T08:26:28;101711.31;;;7.62;77.74
70909;BME280;58554;52.006;5.926;2023-04-08T08:28:55;101714.06;;;7.59;77.73
70909;BME280;58554;52.006;5.926;2023-04-08T08:31:24;101716.72;;;7.57;77.62
70909;BME280;58554;52.006;5.926;2023-04-08T08:33:51;101729.06;;;7.55;77.85
70909;BME280;58554;52.006;5.926;2023-04-08T08:36:17;101724.66;;;7.56;78.14
70909;BME280;58554;52.006;5.926;2023-04-08T08:38:44;101729.03;;;7.57;78.32
70909;BME280;58554;52.006;5.926;2023-04-08T08:41:11;101724.50;;;7.60;78.02
70909;BME280;58554;52.006;5.926;2023-04-08T08:43:37;101726.16;;;7.64;77.67
70909;BME280;58554;52.006;5.926;2023-04-08T08:46:05;101722.59;;;7.67;77.22
70909;BME280;58554;52.006;5.926;2023-04-08T08:48:38;101732.97;;;7.71;77.08
70909;BME280;58554;52.006;5.926;2023-04-08T08:51:08;101732.88;;;7.75;76.66
70909;BME280;58554;52.006;5.926;2023-04-08T08:53:35;101738.94;;;7.77;76.59
70909;BME280;58554;52.006;5.926;2023-04-08T08:56:03;101735.38;;;7.79;76.40
70909;BME280;58554;52.006;5.926;2023-04-08T08:58:30;101737.09;;;7.80;75.96
70909;BME280;58554;52.006;5.926;2023-04-08T09:00:57;101748.44;;;7.82;76.30
70909;BME280;58554;52.006;5.926;2023-04-08T09:03:24;101741.34;;;7.84;76.18
70909;BME280;58554;52.006;5.926;2023-04-08T09:05:55;101749.13;;;7.89;75.92
70909;BME280;58554;52.006;5.926;2023-04-08T09:08:28;101749.03;;;7.92;75.97
70909;BME280;58554;52.006;5.926;2023-04-08T09:11:11;101740.97;;;7.97;75.94
70909;BME280;58554;52.006;5.926;2023-04-08T09:13:40;101747.84;;;8.02;76.04
70909;BME280;58554;52.006;5.926;2023-04-08T09:16:09;101738.94;;;8.06;75.68
70909;BME280;58554;52.006;5.926;2023-04-08T09:18:37;101744.84;;;8.15;75.83
70909;BME280;58554;52.006;5.926;2023-04-08T09:21:07;101742.91;;;8.20;75.93
70909;BME280;58554;52.006;5.926;2023-04-08T09:23:37;101751.41;;;8.28;76.07
70909;BME280;58554;52.006;5.926;2023-04-08T09:26:07;101742.41;;;8.35;76.08
70909;BME280;58554;52.006;5.926;2023-04-08T09:28:36;101743.97;;;8.41;75.49
70909;BME280;58554;52.006;5.926;2023-04-08T09:31:17;101737.63;;;8.48;75.08
70909;BME280;58554;52.006;5.926;2023-04-08T09:33:45;101735.63;;;8.55;74.94
70909;BME280;58554;52.006;5.926;2023-04-08T09:36:15;101733.66;;;8.61;74.67
70909;BME280;58554;52.006;5.926;2023-04-08T09:38:42;101733.47;;;8.66;73.86
70909;BME280;58554;52.006;5.926;2023-04-08T09:41:12;101730.63;;;8.72;73.79
70909;BME280;58554;52.006;5.926;2023-04-08T09:43:41;101732.25;;;8.76;73.47
70909;BME280;58554;52.006;5.926;2023-04-08T09:46:10;101739.09;;;8.82;73.44
70909;BME280;58554;52.006;5.926;2023-04-08T09:48:42;101744.22;;;8.86;73.70
70909;BME280;58554;52.006;5.926;2023-04-08T09:51:18;101750.03;;;8.96;73.85
70909;BME280;58554;52.006;5.926;2023-04-08T09:53:55;101755.97;;;9.03;73.61
70909;BME280;58554;52.006;5.926;2023-04-08T09:56:30;101748.63;;;9.11;73.60
70909;BME280;58554;52.006;5.926;2023-04-08T09:59:10;101757.16;;;9.19;73.53
70909;BME280;58554;52.006;5.926;2023-04-08T10:01:44;101755.94;;;9.29;73.59
70909;BME280;58554;52.006;5.926;2023-04-08T10:04:20;101752.03;;;9.40;73.32
70909;BME280;58554;52.006;5.926;2023-04-08T10:06:57;101749.06;;;9.49;72.58
70909;BME280;58554;52.006;5.926;2023-04-08T10:09:29;101747.78;;;9.59;72.11
70909;BME280;58554;52.006;5.926;2023-04-08T10:11:59;101747.38;;;9.70;71.26
70909;BME280;58554;52.006;5.926;2023-04-08T10:14:26;101745.25;;;9.80;70.88
70909;BME280;58554;52.006;5.926;2023-04-08T10:17:25;101738.53;;;9.94;69.54
70909;BME280;58554;52.006;5.926;2023-04-08T10:19:52;101741.16;;;10.17;69.69
70909;BME280;58554;52.006;5.926;2023-04-08T10:22:49;101749.66;;;10.47;68.72
70909;BME280;58554;52.006;5.926;2023-04-08T10:25:29;101746.72;;;10.75;68.86
70909;BME280;58554;52.006;5.926;2023-04-08T10:27:57;101752.38;;;11.08;68.40
70909;BME280;58554;52.006;5.926;2023-04-08T10:30:40;101746.31;;;11.46;67.91
70909;BME280;58554;52.006;5.926;2023-04-08T10:33:11;101740.75;;;11.71;67.69
70909;BME280;58554;52.006;5.926;2023-04-08T10:35:41;101732.63;;;11.93;67.64
70909;BME280;58554;52.006;5.926;2023-04-08T10:38:12;101729.81;;;12.15;67.27
70909;BME280;58554;52.006;5.926;2023-04-08T10:40:41;101729.75;;;12.35;66.71
70909;BME280;58554;52.006;5.926;2023-04-08T10:43:09;101726.84;;;12.57;65.93
70909;BME280;58554;52.006;5.926;2023-04-08T10:45:38;101730.44;;;12.74;64.63
70909;BME280;58554;52.006;5.926;2023-04-08T10:48:15;101729.91;;;12.85;64.57
70909;BME280;58554;52.006;5.926;2023-04-08T10:50:44;101727.31;;;13.01;64.13
70909;BME280;58554;52.006;5.926;2023-04-08T10:53:23;101725.31;;;13.22;63.95
70909;BME280;58554;52.006;5.926;2023-04-08T10:55:51;101722.78;;;13.36;62.75
70909;BME280;58554;52.006;5.926;2023-04-08T10:58:18;101721.34;;;13.46;62.62
70909;BME280;58554;52.006;5.926;2023-04-08T11:00:44;101717.09;;;13.60;62.08
70909;BME280;58554;52.006;5.926;2023-04-08T11:03:11;101718.25;;;13.71;61.16
70909;BME280;58554;52.006;5.926;2023-04-08T11:05:38;101719.88;;;13.74;59.87
70909;BME280;58554;52.006;5.926;2023-04-08T11:08:05;101719.69;;;13.77;60.17
70909;BME280;58554;52.006;5.926;2023-04-08T11:10:37;101729.47;;;13.76;60.04
70909;BME280;58554;52.006;5.926;2023-04-08T11:13:06;101727.06;;;13.72;60.03
70909;BME280;58554;52.006;5.926;2023-04-08T11:15:34;101728.25;;;13.66;60.13
70909;BME280;58554;52.006;5.926;2023-04-08T11:18:02;101731.34;;;13.59;60.06
70909;BME280;58554;52.006;5.926;2023-04-08T11:20:31;101728.88;;;13.54;60.17
70909;BME280;58554;52.006;5.926;2023-04-08T11:22:58;101727.91;;;13.56;60.35
70909;BME280;58554;52.006;5.926;2023-04-08T11:25:24;101725.38;;;13.71;60.26
70909;BME280;58554;52.006;5.926;2023-04-08T11:27:54;101720.53;;;13.93;59.94
70909;BME280;58554;52.006;5.926;2023-04-08T11:30:22;101714.88;;;14.15;59.53
70909;BME280;58554;52.006;5.926;2023-04-08T11:32:49;101715.00;;;14.44;59.23
70909;BME280;58554;52.006;5.926;2023-04-08T11:35:16;101718.13;;;14.67;58.21
70909;BME280;58554;52.006;5.926;2023-04-08T11:37:45;101710.28;;;14.80;58.01
70909;BME280;58554;52.006;5.926;2023-04-08T11:40:12;101710.56;;;14.89;56.69
70909;BME280;58554;52.006;5.926;2023-04-08T11:42:44;101714.75;;;14.93;56.29
70909;BME280;58554;52.006;5.926;2023-04-08T11:45:15;101715.13;;;14.87;55.23
70909;BME280;58554;52.006;5.926;2023-04-08T11:47:44;101727.28;;;14.77;55.26
70909;BME280;58554;52.006;5.926;2023-04-08T11:50:11;101711.06;;;14.66;55.55
70909;BME280;58554;52.006;5.926;2023-04-08T11:52:45;101712.19;;;14.62;54.98
70909;BME280;58554;52.006;5.926;2023-04-08T11:55:21;101708.28;;;14.53;54.65
70909;BME280;58554;52.006;5.926;2023-04-08T11:57:50;101712.91;;;14.49;54.92
70909;BME280;58554;52.006;5.926;2023-04-08T12:00:25;101714.81;;;14.47;54.23
70909;BME280;58554;52.006;5.926;2023-04-08T12:02:52;101720.81;;;14.51;54.75
70909;BME280;58554;52.006;5.926;2023-04-08T12:05:19;101713.59;;;14.53;54.77
70909;BME280;58554;52.006;5.926;2023-04-08T12:07:46;101721.03;;;14.62;54.44
70909;BME280;58554;52.006;5.926;2023-04-08T12:10:12;101719.66;;;14.71;54.67
70909;BME280;58554;52.006;5.926;2023-04-08T12:12:39;101721.94;;;14.77;54.60
70909;BME280;58554;52.006;5.926;2023-04-08T12:15:08;101725.22;;;14.82;54.67
70909;BME280;58554;52.006;5.926;2023-04-08T12:17:38;101723.78;;;14.91;54.05
70909;BME280;58554;52.006;5.926;2023-04-08T12:20:05;101726.28;;;14.94;54.01
70909;BME280;58554;52.006;5.926;2023-04-08T12:22:32;101718.94;;;14.97;54.36
70909;BME280;58554;52.006;5.926;2023-04-08T12:24:59;101717.72;;;15.03;53.87
70909;BME280;58554;52.006;5.926;2023-04-08T12:27:26;101715.63;;;15.08;53.36
70909;BME280;58554;52.006;5.926;2023-04-08T12:29:52;101716.97;;;15.15;53.54
70909;BME280;58554;52.006;5.926;2023-04-08T12:32:19;101712.50;;;15.30;53.26
70909;BME280;58554;52.006;5.926;2023-04-08T12:34:48;101710.22;;;15.38;53.00
70909;BME280;58554;52.006;5.926;2023-04-08T12:37:14;101713.44;;;15.44;52.61
70909;BME280;58554;52.006;5.926;2023-04-08T12:39:41;101717.91;;;15.43;52.00
70909;BME280;58554;52.006;5.926;2023-04-08T12:42:07;101707.16;;;15.45;52.45
70909;BME280;58554;52.006;5.926;2023-04-08T12:44:34;101717.06;;;15.57;51.80
70909;BME280;58554;52.006;5.926;2023-04-08T12:47:01;101715.63;;;15.66;51.93
70909;BME280;58554;52.006;5.926;2023-04-08T12:49:27;101709.03;;;15.71;51.91
70909;BME280;58554;52.006;5.926;2023-04-08T12:51:57;101709.88;;;15.72;51.70
70909;BME280;58554;52.006;5.926;2023-04-08T12:54:24;101707.13;;;15.73;51.52
70909;BME280;58554;52.006;5.926;2023-04-08T12:56:50;101711.81;;;15.70;51.52
70909;BME280;58554;52.006;5.926;2023-04-08T12:59:17;101707.31;;;15.70;51.53
70909;BME280;58554;52.006;5.926;2023-04-08T13:01:43;101711.72;;;15.71;51.42
70909;BME280;58554;52.006;5.926;2023-04-08T13:04:11;101701.88;;;15.72;51.60